Time;durP1;ratioP1;P1;durP2;ratioP2;P2;SDS_P1;SDS_P2;PMS_P1;PMS_P2;Temp;Humidity;BMP_temperature;BMP_pressure;BME280_temperature;BME280_humidity;BME280_pressure;Samples;Min_cycle;Max_cycle;Signal;HPM_P1;HPM_P2
2021/07/26 00:01:18;;;;;;;7.22;6.53;;;;;;;-146.61;100.00;58846.50;6286970;22;20017;-84
2021/07/26 00:03:48;;;;;;;6.55;5.95;;;;;;;-146.61;100.00;58846.50;6286140;22;20399;-85
2021/07/26 00:06:15;;;;;;;7.25;6.40;;;;;;;-146.61;100.00;58846.50;6288864;22;20082;-84
2021/07/26 00:08:42;;;;;;;7.60;6.90;;;;;;;-146.61;100.00;58846.50;6284215;22;20543;-87
2021/07/26 00:11:12;;;;;;;8.80;7.20;;;;;;;-146.61;100.00;58846.50;6262782;22;20034;-85
2021/07/26 00:13:40;;;;;;;6.75;6.15;;;;;;;-146.61;100.00;58846.50;6262788;22;20027;-85
2021/07/26 00:16:07;;;;;;;8.15;6.78;;;;;;;-146.61;100.00;58846.50;6287093;22;20466;-85
2021/07/26 00:18:34;;;;;;;6.93;6.28;;;;;;;-146.61;100.00;58846.50;6260734;22;20034;-87
2021/07/26 00:21:02;;;;;;;11.95;7.22;;;;;;;-146.61;100.00;58846.50;6261935;22;20048;-88
2021/07/26 00:23:29;;;;;;;8.65;6.72;;;;;;;-146.61;100.00;58846.50;6263029;22;20097;-86
2021/07/26 00:25:58;;;;;;;7.47;6.78;;;;;;;-146.61;100.00;58846.50;6288899;22;20058;-85
2021/07/26 00:28:25;;;;;;;6.65;6.05;;;;;;;-146.61;100.00;58846.50;6285453;22;20126;-85
2021/07/26 00:30:51;;;;;;;8.35;7.07;;;;;;;-146.61;100.00;58846.50;6262406;22;20457;-85
2021/07/26 00:34:07;;;;;;;8.20;7.40;;;;;;;-146.61;100.00;58846.50;6288566;22;20031;-85
2021/07/26 00:36:35;;;;;;;6.45;5.82;;;;;;;-146.61;100.00;58846.50;6263064;22;20103;-81
2021/07/26 00:39:07;;;;;;;8.10;7.30;;;;;;;-146.61;100.00;58846.50;6258755;22;20027;-87
2021/07/26 00:41:35;;;;;;;7.22;6.07;;;;;;;-146.61;100.00;58846.50;6292999;22;20375;-87
2021/07/26 00:44:01;;;;;;;9.45;6.25;;;;;;;-146.61;100.00;58846.50;6290042;22;20502;-85
2021/07/26 00:46:28;;;;;;;6.85;6.15;;;;;;;-146.61;100.00;58846.50;6285995;22;20451;-86
2021/07/26 00:48:55;;;;;;;7.25;6.22;;;;;;;-146.61;100.00;58846.50;6286959;22;20055;-86
2021/07/26 00:51:23;;;;;;;6.95;6.25;;;;;;;-146.61;100.00;58846.50;6264674;22;20015;-83
2021/07/26 00:53:50;;;;;;;8.32;7.40;;;;;;;-146.61;100.00;58846.50;6291472;22;20019;-81
2021/07/26 00:56:17;;;;;;;8.00;7.25;;;;;;;-146.61;100.00;58846.50;6259562;22;20027;-88
2021/07/26 00:58:44;;;;;;;7.90;7.03;;;;;;;-146.61;100.00;58846.50;6262934;22;20016;-89
2021/07/26 01:01:13;;;;;;;7.80;6.93;;;;;;;-146.61;100.00;58846.50;6288833;22;20081;-84
2021/07/26 01:03:42;;;;;;;8.75;7.82;;;;;;;-146.61;100.00;58846.50;6263818;22;20024;-84
2021/07/26 01:06:10;;;;;;;8.02;7.28;;;;;;;-146.61;100.00;58846.50;6266916;22;20024;-86
2021/07/26 01:08:37;;;;;;;9.00;7.30;;;;;;;-146.61;100.00;58846.50;6286191;22;20023;-87
2021/07/26 01:11:05;;;;;;;8.05;7.28;;;;;;;-146.61;100.00;58846.50;6290848;22;20031;-86
2021/07/26 01:13:34;;;;;;;8.07;7.15;;;;;;;-146.61;100.00;58846.50;6265594;22;20024;-84
2021/07/26 01:16:02;;;;;;;9.05;7.00;;;;;;;-146.61;100.00;58846.50;6265111;22;20020;-82
2021/07/26 01:18:32;;;;;;;8.82;7.15;;;;;;;-146.61;100.00;58846.50;6261921;22;20422;-85
2021/07/26 01:21:07;;;;;;;8.23;7.40;;;;;;;-146.61;100.00;58846.50;6289679;22;20047;-84
2021/07/26 01:23:36;;;;;;;8.60;7.38;;;;;;;-146.61;100.00;58846.50;6291163;22;20459;-88
2021/07/26 01:26:05;;;;;;;7.45;6.65;;;;;;;-146.61;100.00;58846.50;6261788;22;20760;-85
2021/07/26 01:28:35;;;;;;;8.45;7.28;;;;;;;-146.61;100.00;58846.50;6287630;22;20008;-87
2021/07/26 01:31:02;;;;;;;9.77;7.43;;;;;;;-146.61;100.00;58846.50;6288424;22;20023;-90
2021/07/26 01:33:29;;;;;;;8.27;7.43;;;;;;;-146.61;100.00;58846.50;6264485;22;20045;-86
2021/07/26 01:35:57;;;;;;;7.55;6.57;;;;;;;-146.61;100.00;58846.50;6265621;22;20020;-86
2021/07/26 01:38:24;;;;;;;9.63;6.68;;;;;;;-146.61;100.00;58846.50;6259384;22;20019;-85
2021/07/26 01:40:53;;;;;;;10.15;7.40;;;;;;;-146.61;100.00;58846.50;6289707;22;20020;-86
2021/07/26 01:43:20;;;;;;;8.13;7.30;;;;;;;-146.61;100.00;58846.50;6262848;22;20030;-87
2021/07/26 01:46:01;;;;;;;8.13;7.13;;;;;;;-146.61;100.00;58846.50;6290788;22;20024;-88
2021/07/26 01:48:49;;;;;;;7.65;6.85;;;;;;;-146.61;100.00;58846.50;6286390;22;20101;-85
2021/07/26 01:51:20;;;;;;;7.28;6.63;;;;;;;-146.61;100.00;58846.50;6287533;22;20077;-86
2021/07/26 01:53:47;;;;;;;7.78;6.15;;;;;;;-146.61;100.00;58846.50;6290954;22;20030;-84
2021/07/26 01:56:15;;;;;;;8.55;6.38;;;;;;;-146.61;100.00;58846.50;6263607;22;20054;-85
2021/07/26 01:58:42;;;;;;;9.30;6.88;;;;;;;-146.61;100.00;58846.50;6287828;22;20320;-88
2021/07/26 02:01:08;;;;;;;7.78;6.38;;;;;;;-146.61;100.00;58846.50;6285256;22;20027;-88
2021/07/26 02:03:35;;;;;;;7.88;7.13;;;;;;;-146.61;100.00;58846.50;6267557;22;20102;-85
2021/07/26 02:06:01;;;;;;;7.85;7.03;;;;;;;-146.61;100.00;58846.50;6289790;22;20012;-84
2021/07/26 02:08:28;;;;;;;6.72;5.97;;;;;;;-146.61;100.00;58846.50;6259720;22;20019;-86
2021/07/26 02:10:54;;;;;;;7.72;6.82;;;;;;;-146.61;100.00;58846.50;6266596;22;20015;-86
2021/07/26 02:13:21;;;;;;;8.90;6.97;;;;;;;-146.61;100.00;58846.50;6262826;22;20518;-86
2021/07/26 02:15:47;;;;;;;7.72;6.93;;;;;;;-146.61;100.00;58846.50;6289272;22;20065;-83
2021/07/26 02:18:14;;;;;;;7.57;6.78;;;;;;;-146.61;100.00;58846.50;6286117;22;20024;-88
2021/07/26 02:20:43;;;;;;;10.77;7.22;;;;;;;-146.61;100.00;58846.50;6260997;22;20122;-83
2021/07/26 02:23:09;;;;;;;8.43;6.75;;;;;;;-146.61;100.00;58846.50;6265111;22;20024;-86
2021/07/26 02:25:36;;;;;;;8.25;6.47;;;;;;;-146.61;100.00;58846.50;6287122;22;20024;-86
2021/07/26 02:28:03;;;;;;;12.32;7.70;;;;;;;-146.61;100.00;58846.50;6288942;22;20402;-86
2021/07/26 02:30:32;;;;;;;10.07;7.47;;;;;;;-146.61;100.00;58846.50;6261988;22;20020;-86
2021/07/26 02:32:58;;;;;;;7.93;7.07;;;;;;;-146.61;100.00;58846.50;6267302;22;20051;-85
2021/07/26 02:35:27;;;;;;;8.07;7.25;;;;;;;-146.61;100.00;58846.50;6263713;22;20023;-86
2021/07/26 02:37:58;;;;;;;7.97;6.50;;;;;;;-146.61;100.00;58846.50;6261584;22;20149;-86
2021/07/26 02:40:27;;;;;;;8.48;7.15;;;;;;;-146.61;100.00;58846.50;6261796;22;20167;-84
2021/07/26 02:42:54;;;;;;;9.40;7.40;;;;;;;-146.61;100.00;58846.50;6286942;22;20020;-86
2021/07/26 02:45:21;;;;;;;8.30;7.43;;;;;;;-146.61;100.00;58846.50;6289107;22;20058;-85
2021/07/26 02:47:50;;;;;;;12.73;8.23;;;;;;;-146.61;100.00;58846.50;6263609;22;20075;-82
2021/07/26 02:50:20;;;;;;;8.60;7.13;;;;;;;-146.61;100.00;58846.50;6285388;22;20093;-86
2021/07/26 02:52:46;;;;;;;9.75;6.78;;;;;;;-146.61;100.00;58846.50;6263362;22;20086;-87
2021/07/26 02:55:18;;;;;;;8.18;6.97;;;;;;;-146.61;100.00;58846.50;6287110;22;20027;-87
2021/07/26 02:57:45;;;;;;;8.95;8.05;;;;;;;-146.61;100.00;58846.50;6288768;22;20055;-85
2021/07/26 03:00:12;;;;;;;10.43;7.90;;;;;;;-146.61;100.00;58846.50;6257575;22;20280;-86
2021/07/26 03:02:39;;;;;;;8.63;7.53;;;;;;;-146.61;100.00;58846.50;6290758;22;20081;-85
2021/07/26 03:05:06;;;;;;;7.65;6.82;;;;;;;-146.61;100.00;58846.50;6287074;22;20030;-87
2021/07/26 03:07:33;;;;;;;7.65;6.85;;;;;;;-146.61;100.00;58846.50;6259890;22;20034;-88
2021/07/26 03:09:59;;;;;;;9.15;7.32;;;;;;;-146.61;100.00;58846.50;6285593;22;20034;-85
2021/07/26 03:12:26;;;;;;;9.35;8.35;;;;;;;-146.61;100.00;58846.50;6285442;22;20042;-89
2021/07/26 03:14:52;;;;;;;10.13;8.20;;;;;;;-146.61;100.00;58846.50;6290311;22;20023;-84
2021/07/26 03:17:19;;;;;;;10.38;8.57;;;;;;;-146.61;100.00;58846.50;6286515;22;20035;-86
2021/07/26 03:19:46;;;;;;;8.93;7.32;;;;;;;-146.61;100.00;58846.50;6258349;22;20019;-88
2021/07/26 03:22:50;;;;;;;7.57;6.85;;;;;;;-146.61;100.00;58846.50;6260712;22;20328;-90
2021/07/26 03:25:17;;;;;;;11.43;7.97;;;;;;;-146.61;100.00;58846.50;6258471;22;20073;-88
2021/07/26 03:27:44;;;;;;;12.15;6.93;;;;;;;-146.61;100.00;58846.50;6261896;22;20109;-85
2021/07/26 03:30:12;;;;;;;12.10;7.38;;;;;;;-146.61;100.00;58846.50;6258453;22;20126;-82
2021/07/26 03:32:38;;;;;;;9.88;6.47;;;;;;;-146.61;100.00;58846.50;6266892;22;20089;-85
2021/07/26 03:35:06;;;;;;;7.53;6.72;;;;;;;-146.61;100.00;58846.50;6266557;22;20019;-87
2021/07/26 03:37:32;;;;;;;8.55;6.82;;;;;;;-146.61;100.00;58846.50;6265426;22;20020;-85
2021/07/26 03:39:59;;;;;;;7.97;6.57;;;;;;;-146.61;100.00;58846.50;6262204;22;20047;-83
2021/07/26 03:42:26;;;;;;;8.40;7.15;;;;;;;-146.61;100.00;58846.50;6289099;22;20416;-84
2021/07/26 03:44:56;;;;;;;8.10;6.97;;;;;;;-146.61;100.00;58846.50;6288495;22;20024;-87
2021/07/26 03:47:24;;;;;;;9.77;6.45;;;;;;;-146.61;100.00;58846.50;6260173;22;20034;-84
2021/07/26 03:49:59;;;;;;;6.88;6.10;;;;;;;-146.61;100.00;58846.50;6260696;22;20054;-83
2021/07/26 03:52:29;;;;;;;7.65;6.70;;;;;;;-146.61;100.00;58846.50;6288153;22;20844;-88
2021/07/26 03:54:56;;;;;;;8.48;6.38;;;;;;;-146.61;100.00;58846.50;6261239;22;20085;-87
2021/07/26 03:57:23;;;;;;;7.03;5.22;;;;;;;-146.61;100.00;58846.50;6263259;22;20077;-88
2021/07/26 03:59:50;;;;;;;14.63;7.20;;;;;;;-146.61;100.00;58846.50;6256074;22;20027;-85
2021/07/26 04:02:16;;;;;;;9.23;5.80;;;;;;;-146.61;100.00;58846.50;6286726;22;20022;-83
2021/07/26 04:04:46;;;;;;;7.57;5.95;;;;;;;-146.61;100.00;58846.50;6284868;22;20028;-84
2021/07/26 04:07:14;;;;;;;7.47;5.72;;;;;;;-146.61;100.00;58846.50;6264272;22;20724;-89
2021/07/26 04:09:43;;;;;;;7.35;5.85;;;;;;;-146.61;100.00;58846.50;6259838;22;20024;-85
2021/07/26 04:12:15;;;;;;;8.65;6.40;;;;;;;-146.61;100.00;58846.50;6288729;22;20015;-88
2021/07/26 04:14:42;;;;;;;7.32;6.00;;;;;;;-146.61;100.00;58846.50;6264678;22;20015;-87
2021/07/26 04:17:09;;;;;;;7.57;6.55;;;;;;;-146.61;100.00;58846.50;6283051;22;20032;-83
2021/07/26 04:19:36;;;;;;;6.15;5.55;;;;;;;-146.61;100.00;58846.50;6284024;22;20020;-87
2021/07/26 04:22:02;;;;;;;9.00;6.32;;;;;;;-146.61;100.00;58846.50;6263807;22;20015;-86
2021/07/26 04:24:29;;;;;;;7.80;5.53;;;;;;;-146.61;100.00;58846.50;6261193;22;20019;-89
2021/07/26 04:26:55;;;;;;;10.23;5.90;;;;;;;-146.61;100.00;58846.50;6290718;22;20024;-86
2021/07/26 04:29:22;;;;;;;9.77;5.32;;;;;;;-146.61;100.00;58846.50;6262759;22;20019;-89
2021/07/26 04:31:49;;;;;;;9.98;7.28;;;;;;;-146.61;100.00;58846.50;6266375;22;20062;-88
2021/07/26 04:34:18;;;;;;;7.82;6.15;;;;;;;-146.61;100.00;58846.50;6262939;22;20024;-85
2021/07/26 04:36:52;;;;;;;7.45;5.63;;;;;;;-146.61;100.00;58846.50;6268463;22;20026;-87
2021/07/26 04:39:19;;;;;;;6.88;5.35;;;;;;;-146.61;100.00;58846.50;6266513;22;20031;-84
2021/07/26 04:41:50;;;;;;;6.20;5.65;;;;;;;-146.61;100.00;58846.50;6261968;22;20051;-88
2021/07/26 04:44:17;;;;;;;10.35;5.70;;;;;;;-146.61;100.00;58846.50;6264107;22;20443;-87
2021/07/26 04:46:46;;;;;;;5.68;5.18;;;;;;;-146.61;100.00;58846.50;6259146;22;20036;-84
2021/07/26 04:49:12;;;;;;;5.93;5.28;;;;;;;-146.61;100.00;58846.50;6288122;22;20015;-88
2021/07/26 04:51:39;;;;;;;6.72;5.95;;;;;;;-146.61;100.00;58846.50;6267354;22;20027;-84
2021/07/26 04:54:05;;;;;;;6.72;4.80;;;;;;;-146.61;100.00;58846.50;6263424;22;20019;-85
2021/07/26 04:56:32;;;;;;;6.63;4.70;;;;;;;-146.61;100.00;58846.50;6270569;22;20050;-85
2021/07/26 04:58:58;;;;;;;6.47;5.07;;;;;;;-146.61;100.00;58846.50;6267386;22;20223;-89
2021/07/26 05:01:25;;;;;;;8.40;4.88;;;;;;;-146.61;100.00;58846.50;6268246;22;20049;-84
2021/07/26 05:03:55;;;;;;;4.25;3.90;;;;;;;-146.61;100.00;58846.50;6289354;22;20514;-88
2021/07/26 05:06:22;;;;;;;4.80;4.32;;;;;;;-146.61;100.00;58846.50;6265995;22;20031;-86
2021/07/26 05:08:51;;;;;;;10.05;4.80;;;;;;;-146.61;100.00;58846.50;6269717;22;20038;-83
2021/07/26 05:11:24;;;;;;;9.60;5.30;;;;;;;-146.61;100.00;58846.50;6272824;22;20037;-84
2021/07/26 05:13:53;;;;;;;5.40;4.65;;;;;;;-146.61;100.00;58846.50;6281026;22;20211;-84
2021/07/26 05:16:23;;;;;;;4.28;3.88;;;;;;;-146.61;100.00;58846.50;6273076;22;20051;-85
2021/07/26 05:18:54;;;;;;;5.57;5.05;;;;;;;-146.61;100.00;58846.50;6276583;22;20026;-84
2021/07/26 05:21:27;;;;;;;5.20;4.30;;;;;;;-146.61;100.00;58846.50;6275761;22;20079;-85
2021/07/26 05:23:54;;;;;;;9.15;5.47;;;;;;;-146.61;100.00;58846.50;6296858;22;20026;-85
2021/07/26 05:26:21;;;;;;;5.45;4.25;;;;;;;-146.61;100.00;58846.50;6271305;22;20024;-87
2021/07/26 05:28:50;;;;;;;7.05;5.65;;;;;;;-146.61;100.00;58846.50;6296083;22;20023;-89
2021/07/26 05:31:17;;;;;;;5.78;4.18;;;;;;;-146.61;100.00;58846.50;6267708;22;20038;-86
2021/07/26 05:33:50;;;;;;;5.50;5.00;;;;;;;-146.61;100.00;58846.50;6265721;22;20027;-84
2021/07/26 05:36:23;;;;;;;7.57;4.18;;;;;;;-146.61;100.00;58846.50;6267268;22;20363;-85
2021/07/26 05:38:51;;;;;;;4.78;4.13;;;;;;;-146.61;100.00;58846.50;6295726;22;20024;-83
2021/07/26 05:41:18;;;;;;;6.20;4.45;;;;;;;-146.61;100.00;58846.50;6267994;22;20030;-81
2021/07/26 05:43:46;;;;;;;7.15;4.70;;;;;;;-146.61;100.00;58846.50;6274316;22;20086;-86
2021/07/26 05:46:12;;;;;;;11.25;4.85;;;;;;;-146.61;100.00;58846.50;6247853;22;20081;-87
2021/07/26 05:48:39;;;;;;;4.07;3.78;;;;;;;-146.61;100.00;58846.50;6268888;22;20023;-88
2021/07/26 05:51:11;;;;;;;7.10;4.22;;;;;;;-146.61;100.00;58846.50;6269276;22;20066;-84
2021/07/26 05:53:37;;;;;;;5.50;4.57;;;;;;;-146.61;100.00;58846.50;6267683;22;20020;-87
2021/07/26 05:56:05;;;;;;;5.15;4.53;;;;;;;-146.61;100.00;58846.50;6269935;22;20073;-87
2021/07/26 05:58:40;;;;;;;5.47;4.65;;;;;;;-146.61;100.00;58846.50;6263334;22;20027;-88
2021/07/26 06:01:21;;;;;;;8.80;4.70;;;;;;;-146.61;100.00;58846.50;6271805;22;20087;-84
2021/07/26 06:03:56;;;;;;;6.15;4.32;;;;;;;-146.61;100.00;58846.50;6252920;22;20138;-86
2021/07/26 06:06:23;;;;;;;5.40;3.90;;;;;;;-146.61;100.00;58846.50;6268082;22;20016;-86
2021/07/26 06:08:49;;;;;;;7.65;4.15;;;;;;;-146.61;100.00;58846.50;6266728;22;20028;-87
2021/07/26 06:11:17;;;;;;;7.75;4.60;;;;;;;-146.61;100.00;58846.50;6268544;22;20069;-83
2021/07/26 06:13:49;;;;;;;7.00;4.35;;;;;;;-146.61;100.00;58846.50;6293945;22;20019;-87
2021/07/26 06:16:16;;;;;;;5.80;4.15;;;;;;;-146.61;100.00;58846.50;6269132;22;20031;-83
2021/07/26 06:18:42;;;;;;;8.23;5.05;;;;;;;-146.61;100.00;58846.50;6294005;22;20077;-88
2021/07/26 06:21:09;;;;;;;5.10;3.83;;;;;;;-146.61;100.00;58846.50;6291293;22;20027;-86
2021/07/26 06:23:36;;;;;;;4.88;4.28;;;;;;;-146.61;100.00;58846.50;6269937;22;20043;-83
2021/07/26 06:26:05;;;;;;;7.07;4.20;;;;;;;-146.61;100.00;58846.50;6293303;22;20077;-87
2021/07/26 06:28:33;;;;;;;4.03;3.65;;;;;;;-146.61;100.00;58846.50;6266102;22;20457;-88
2021/07/26 06:31:00;;;;;;;8.25;3.72;;;;;;;-146.61;100.00;58846.50;6265264;22;20054;-88
2021/07/26 06:33:27;;;;;;;4.35;3.80;;;;;;;-146.61;100.00;58846.50;6289696;22;20024;-85
2021/07/26 06:35:53;;;;;;;7.93;3.70;;;;;;;-146.61;100.00;58846.50;6293202;22;20030;-88
2021/07/26 06:38:20;;;;;;;7.15;4.22;;;;;;;-146.61;100.00;58846.50;6268268;22;20073;-84
2021/07/26 06:40:46;;;;;;;4.07;3.40;;;;;;;-146.61;100.00;58846.50;6268734;22;20620;-86
2021/07/26 06:43:13;;;;;;;3.92;3.30;;;;;;;-146.61;100.00;58846.50;6262603;22;20384;-85
2021/07/26 06:45:39;;;;;;;5.18;4.05;;;;;;;-146.61;100.00;58846.50;6261999;22;20297;-85
2021/07/26 06:48:06;;;;;;;3.53;3.25;;;;;;;-146.61;100.00;58846.50;6265145;22;20146;-85
2021/07/26 06:50:34;;;;;;;3.38;3.08;;;;;;;-146.61;100.00;58846.50;6263648;22;20030;-86
2021/07/26 06:53:03;;;;;;;3.67;3.38;;;;;;;-146.61;100.00;58846.50;6267012;22;20029;-87
2021/07/26 06:55:29;;;;;;;4.65;3.20;;;;;;;-146.61;100.00;58846.50;6267640;22;20663;-86
2021/07/26 06:57:56;;;;;;;4.32;3.28;;;;;;;-146.61;100.00;58846.50;6263232;22;20020;-88
2021/07/26 07:00:27;;;;;;;4.97;3.80;;;;;;;-146.61;100.00;58846.50;6267211;22;20020;-82
2021/07/26 07:02:54;;;;;;;6.53;4.13;;;;;;;-146.61;100.00;58846.50;6266876;22;20351;-86
2021/07/26 07:05:21;;;;;;;3.00;2.80;;;;;;;-146.61;100.00;58846.50;6265642;22;20023;-87
2021/07/26 07:07:47;;;;;;;4.32;3.22;;;;;;;-146.61;100.00;58846.50;6264713;22;20026;-87
2021/07/26 07:10:15;;;;;;;4.60;3.45;;;;;;;-146.61;100.00;58846.50;6264823;22;20023;-84
2021/07/26 07:12:41;;;;;;;5.63;2.83;;;;;;;-146.61;100.00;58846.50;6291357;22;20350;-84
2021/07/26 07:15:11;;;;;;;3.10;2.80;;;;;;;-146.61;100.00;58846.50;6265940;22;20024;-87
2021/07/26 07:17:38;;;;;;;2.67;2.42;;;;;;;-146.61;100.00;58846.50;6288948;22;20080;-86
2021/07/26 07:20:06;;;;;;;3.13;2.90;;;;;;;-146.61;100.00;58846.50;6262752;22;20028;-84
2021/07/26 07:22:33;;;;;;;2.53;2.33;;;;;;;-146.61;100.00;58846.50;6264420;22;20107;-84
2021/07/26 07:25:00;;;;;;;4.97;2.50;;;;;;;-146.61;100.00;58846.50;6266007;22;20050;-87
2021/07/26 07:27:28;;;;;;;2.95;2.75;;;;;;;-146.61;100.00;58846.50;6287697;22;20435;-85
2021/07/26 07:29:55;;;;;;;3.05;2.53;;;;;;;-146.61;100.00;58846.50;6292029;22;20019;-84
2021/07/26 07:32:25;;;;;;;2.78;2.58;;;;;;;-146.61;100.00;58846.50;6286773;22;20466;-87
2021/07/26 07:34:51;;;;;;;4.82;3.70;;;;;;;-146.61;100.00;58846.50;6263464;22;20046;-84
2021/07/26 07:37:20;;;;;;;3.60;2.67;;;;;;;-146.61;100.00;58846.50;6262059;22;20069;-85
2021/07/26 07:39:47;;;;;;;5.57;3.05;;;;;;;-146.61;100.00;58846.50;6265260;22;20019;-86
2021/07/26 07:42:17;;;;;;;4.25;3.20;;;;;;;-146.61;100.00;58846.50;6264387;22;20031;-86
2021/07/26 07:44:43;;;;;;;3.00;2.25;;;;;;;-146.61;100.00;58846.50;6286216;22;20055;-88
2021/07/26 07:47:13;;;;;;;2.45;2.25;;;;;;;-146.61;100.00;58846.50;6264052;22;20023;-86
2021/07/26 07:49:40;;;;;;;3.15;2.67;;;;;;;-146.61;100.00;58846.50;6286669;22;20023;-86
2021/07/26 07:52:07;;;;;;;3.60;3.22;;;;;;;-146.61;100.00;58846.50;6289656;22;20023;-89
2021/07/26 07:54:37;;;;;;;2.92;2.47;;;;;;;-146.61;100.00;58846.50;6264457;22;20067;-84
2021/07/26 07:57:04;;;;;;;3.70;2.47;;;;;;;-146.61;100.00;58846.50;6287602;22;20058;-83
2021/07/26 07:59:34;;;;;;;2.55;2.35;;;;;;;-146.61;100.00;58846.50;6264271;22;20023;-83
2021/07/26 08:02:07;;;;;;;3.45;2.20;;;;;;;-146.61;100.00;58846.50;6286581;22;21064;-86
2021/07/26 08:04:35;;;;;;;2.58;2.38;;;;;;;-146.61;100.00;58846.50;6263662;22;20020;-86
2021/07/26 08:07:05;;;;;;;1.98;1.65;;;;;;;-146.61;100.00;58846.50;6291584;22;20146;-88
2021/07/26 08:09:32;;;;;;;2.95;2.65;;;;;;;-146.61;100.00;58846.50;6291506;22;20034;-83
2021/07/26 08:11:58;;;;;;;2.78;2.30;;;;;;;-146.61;100.00;58846.50;6267187;22;20030;-88
2021/07/26 08:14:25;;;;;;;3.03;2.83;;;;;;;-146.61;100.00;58846.50;6288980;22;20529;-88
2021/07/26 08:16:52;;;;;;;2.45;2.28;;;;;;;-146.61;100.00;58846.50;6291625;22;20055;-86
2021/07/26 08:19:18;;;;;;;2.45;2.25;;;;;;;-146.61;100.00;58846.50;6263571;22;20020;-88
2021/07/26 08:21:45;;;;;;;1.90;1.80;;;;;;;-146.61;100.00;58846.50;6267395;22;20024;-86
2021/07/26 08:24:11;;;;;;;2.17;2.08;;;;;;;-146.61;100.00;58846.50;6290249;22;20023;-89
2021/07/26 08:26:38;;;;;;;3.15;2.75;;;;;;;-146.61;100.00;58846.50;6286047;22;20051;-83
2021/07/26 08:29:04;;;;;;;2.75;2.13;;;;;;;-146.61;100.00;58846.50;6262989;22;20055;-88
2021/07/26 08:31:31;;;;;;;4.15;2.40;;;;;;;-146.61;100.00;58846.50;6261243;22;20058;-82
2021/07/26 08:33:57;;;;;;;2.83;1.92;;;;;;;-146.61;100.00;58846.50;6291754;22;20022;-89
2021/07/26 08:36:24;;;;;;;2.13;1.95;;;;;;;-146.61;100.00;58846.50;6289409;22;20105;-86
2021/07/26 08:38:50;;;;;;;2.65;2.20;;;;;;;-146.61;100.00;58846.50;6266598;22;20023;-87
2021/07/26 08:41:19;;;;;;;2.67;2.47;;;;;;;-146.61;100.00;58846.50;6265589;22;20090;-86
2021/07/26 08:43:47;;;;;;;1.88;1.77;;;;;;;-146.61;100.00;58846.50;6259602;22;20023;-86
2021/07/26 08:46:21;;;;;;;2.10;2.00;;;;;;;-146.61;100.00;58846.50;6261802;22;20027;-87
2021/07/26 08:48:51;;;;;;;2.67;2.53;;;;;;;-146.61;100.00;58846.50;6261572;22;20752;-88
2021/07/26 08:51:24;;;;;;;1.98;1.88;;;;;;;-146.61;100.00;58846.50;6289940;22;20023;-86
2021/07/26 08:53:58;;;;;;;3.67;2.75;;;;;;;-146.61;100.00;58846.50;6288275;22;20411;-85
2021/07/26 08:56:25;;;;;;;1.95;1.85;;;;;;;-146.61;100.00;58846.50;6266217;22;20046;-86
2021/07/26 08:58:52;;;;;;;2.03;1.80;;;;;;;-146.61;100.00;58846.50;6289278;22;20085;-87
2021/07/26 09:01:18;;;;;;;1.77;1.67;;;;;;;-146.61;100.00;58846.50;6259922;22;20065;-87
2021/07/26 09:03:45;;;;;;;1.60;1.50;;;;;;;-146.61;100.00;58846.50;6287903;22;20066;-89
2021/07/26 09:06:11;;;;;;;2.83;2.72;;;;;;;-146.61;100.00;58846.50;6288163;22;20086;-87
2021/07/26 09:08:41;;;;;;;1.88;1.75;;;;;;;-146.61;100.00;58846.50;6289187;22;20028;-86
2021/07/26 09:11:10;;;;;;;1.77;1.63;;;;;;;-146.61;100.00;58846.50;6289088;22;20023;-87
2021/07/26 09:13:39;;;;;;;1.85;1.80;;;;;;;-146.61;100.00;58846.50;6287242;22;20011;-86
2021/07/26 09:16:23;;;;;;;1.92;1.83;;;;;;;-146.61;100.00;58846.50;6287565;22;20034;-85
2021/07/26 09:19:07;;;;;;;2.40;1.65;;;;;;;-146.61;100.00;58846.50;6259265;22;20051;-87
2021/07/26 09:21:53;;;;;;;1.85;1.75;;;;;;;-146.61;100.00;58846.50;6288267;22;20035;-86
2021/07/26 09:24:30;;;;;;;4.32;1.98;;;;;;;-146.61;100.00;58846.50;6285376;22;20438;-88
2021/07/26 09:27:14;;;;;;;1.45;1.45;;;;;;;-146.61;100.00;58846.50;6262850;22;20370;-86
2021/07/26 09:29:40;;;;;;;1.92;1.83;;;;;;;-146.61;100.00;58846.50;6262208;22;20015;-88
2021/07/26 09:32:07;;;;;;;1.65;1.55;;;;;;;-146.61;100.00;58846.50;6262542;22;20024;-88
2021/07/26 09:34:38;;;;;;;1.88;1.77;;;;;;;-146.61;100.00;58846.50;6263427;22;20024;-90
2021/07/26 09:37:20;;;;;;;2.38;2.28;;;;;;;-146.61;100.00;58846.50;6287069;22;20098;-88
2021/07/26 09:39:46;;;;;;;2.55;2.35;;;;;;;-146.61;100.00;58846.50;6288600;22;20020;-88
2021/07/26 09:42:27;;;;;;;2.10;2.00;;;;;;;-146.61;100.00;58846.50;6259756;22;20034;-89
2021/07/26 09:44:53;;;;;;;2.30;1.92;;;;;;;-146.61;100.00;58846.50;6287959;22;20023;-89
2021/07/26 09:47:23;;;;;;;2.22;2.03;;;;;;;-146.61;100.00;58846.50;6262274;22;20467;-85
2021/07/26 09:49:50;;;;;;;2.10;1.92;;;;;;;-146.61;100.00;58846.50;6289353;22;20038;-86
2021/07/26 09:52:21;;;;;;;1.50;1.50;;;;;;;-146.61;100.00;58846.50;6263732;22;20057;-85
2021/07/26 09:54:52;;;;;;;1.77;1.67;;;;;;;-146.61;100.00;58846.50;6260154;22;20027;-84
2021/07/26 09:57:24;;;;;;;1.90;1.73;;;;;;;-146.61;100.00;58846.50;6263820;22;20246;-85
2021/07/26 09:59:52;;;;;;;1.85;1.75;;;;;;;-146.61;100.00;58846.50;6286541;22;20023;-86
2021/07/26 10:02:20;;;;;;;3.20;1.90;;;;;;;-146.61;100.00;58846.50;6288552;22;20320;-87
2021/07/26 10:04:52;;;;;;;2.70;2.50;;;;;;;-146.61;100.00;58846.50;6287673;22;20086;-86
2021/07/26 10:07:20;;;;;;;2.13;2.00;;;;;;;-146.61;100.00;58846.50;6290918;22;20825;-89
2021/07/26 10:09:47;;;;;;;1.88;1.77;;;;;;;-146.61;100.00;58846.50;6264770;22;20038;-83
2021/07/26 10:12:22;;;;;;;1.92;1.83;;;;;;;-146.61;100.00;58846.50;6287156;22;20019;-86
2021/07/26 10:14:49;;;;;;;2.50;1.75;;;;;;;-146.61;100.00;58846.50;6265290;22;20053;-87
2021/07/26 10:17:19;;;;;;;1.38;1.35;;;;;;;-146.61;100.00;58846.50;6260400;22;20146;-83
2021/07/26 10:19:45;;;;;;;2.33;2.00;;;;;;;-146.61;100.00;58846.50;6263792;22;20439;-89
2021/07/26 10:22:15;;;;;;;3.85;1.38;;;;;;;-146.61;100.00;58846.50;6265426;22;20475;-88
2021/07/26 10:25:00;;;;;;;2.10;1.80;;;;;;;-146.61;100.00;58846.50;6261005;22;20011;-86
2021/07/26 10:27:34;;;;;;;1.60;1.50;;;;;;;-146.61;100.00;58846.50;6289542;22;20033;-87
2021/07/26 10:30:01;;;;;;;1.95;1.85;;;;;;;-146.61;100.00;58846.50;6287895;22;20313;-86
2021/07/26 10:32:31;;;;;;;3.10;1.80;;;;;;;-146.61;100.00;58846.50;6264535;22;20032;-86
2021/07/26 10:35:01;;;;;;;1.55;1.42;;;;;;;-146.61;100.00;58846.50;6286824;22;20019;-87
2021/07/26 10:37:41;;;;;;;1.77;1.58;;;;;;;-146.61;100.00;58846.50;6264191;22;20027;-87
2021/07/26 10:40:40;;;;;;;5.20;2.28;;;;;;;-146.61;100.00;58846.50;6286056;22;20038;-82
2021/07/26 10:43:11;;;;;;;4.03;1.98;;;;;;;-146.61;100.00;58846.50;6288135;22;20027;-86
2021/07/26 10:45:37;;;;;;;2.25;2.05;;;;;;;-146.61;100.00;58846.50;6289362;22;20030;-84
2021/07/26 10:48:22;;;;;;;1.73;1.63;;;;;;;-146.61;100.00;58846.50;6287971;22;20106;-89
2021/07/26 10:50:50;;;;;;;2.08;1.30;;;;;;;-146.61;100.00;58846.50;6264798;22;20541;-84
2021/07/26 10:53:35;;;;;;;1.73;1.63;;;;;;;-146.61;100.00;58846.50;6287966;22;20023;-86
2021/07/26 10:56:14;;;;;;;1.70;1.65;;;;;;;-146.61;100.00;58846.50;6264433;22;20393;-86
2021/07/26 10:58:42;;;;;;;1.38;1.35;;;;;;;-146.61;100.00;58846.50;6284055;22;20083;-87
2021/07/26 11:01:22;;;;;;;1.80;1.65;;;;;;;-146.61;100.00;58846.50;6288237;22;20038;-86
2021/07/26 11:03:58;;;;;;;1.75;1.70;;;;;;;-146.61;100.00;58846.50;6263397;22;20043;-84
2021/07/26 11:06:39;;;;;;;1.60;1.50;;;;;;;-146.61;100.00;58846.50;6290400;22;20023;-87
2021/07/26 11:09:41;;;;;;;1.60;1.60;;;;;;;-146.61;100.00;58846.50;6264312;22;20115;-88
2021/07/26 11:12:08;;;;;;;1.80;1.70;;;;;;;-146.61;100.00;58846.50;6244629;22;20034;-84
2021/07/26 11:14:35;;;;;;;2.72;1.67;;;;;;;-146.61;100.00;58846.50;6290420;22;20016;-89
2021/07/26 11:17:04;;;;;;;3.75;1.77;;;;;;;-146.61;100.00;58846.50;6257090;22;20030;-85
2021/07/26 11:19:44;;;;;;;1.30;1.25;;;;;;;-146.61;100.00;58846.50;6284374;22;20134;-87